Hail, Saudi Arabia

2:46 PM AST on December 05, 2016 (GMT +0300)
Hail | | Change Station

Elev 3330 ft 27.44 °N, 41.69 °E | Updated 46 minutes ago

Mostly Cloudy
Mostly Cloudy
79 °F
Feels Like 79 °F
N
18
Wind Variable Wind from WSW

Today
High -- | Low -- °F
--% Chance of Precip.
Yesterday
High -- | Low -- °F
Precip. -- in
Pressure 30.09 in
Visibility 6.2 miles
Clouds Few 4000 ft
Mostly Cloudy 8000 ft
Dew Point 46 °F
Humidity 32%
Rainfall 0.00 in
Snow Depth Not available.
6:49 AM 5:18 PM
Waxing Crescent, 31% visible
METAR OEHL 051100Z 24016KT 9999 FEW040 BKN080 26/08 Q1019 NOSIG
Pressure 30.09 in
Visibility 6.2 miles
Clouds Few 4000 ft
Mostly Cloudy 8000 ft
Dew Point 46 °F
Humidity 32%
Rainfall 0.00 in
Snow Depth Not available.
6:49 AM 5:18 PM
Waxing Crescent, 31% visible
METAR OEHL 051100Z 24016KT 9999 FEW040 BKN080 26/08 Q1019 NOSIG

10-Day Weather Forecast

No radar image for this location.
×

Almanac

Astronomy

Dec. 05, 2016 Rise Set
Actual Time
Civil Twilight
Nautical Twilight
Astronomical Twilight
Moon
Length of Visible Light
Length of Day
Tomorrow will be .
, % of the Moon is Illuminated

Today's Extremes

Country Highs Country Lows

Community

WunderPhotos

Upload Photos

1,955,777 photos uploaded!

WunderBlog® & News

Nearby

Air Quality

  Air Quality AQ Index Pollutant
Not available.

Snow Depth

Station Depth Elevation

Earthquake Activity

City Distance Mag. Time & Date
Minimum magnitude displayed is 2.5.

Coastal Water Temperatures

Place Temperature

Stations

Nearby Weather Stations

Station Location Temp. Windchill Dew Point Humidity Wind Precip. Elev Updated Type